Time;durP1;ratioP1;P1;durP2;ratioP2;P2;SDS_P1;SDS_P2;PMS_P1;PMS_P2;Temp;Humidity;BMP_temperature;BMP_pressure;BME280_temperature;BME280_humidity;BME280_pressure;Samples;Min_cycle;Max_cycle;Signal;HPM_P1;HPM_P2
2023/05/05 00:00:54;;;;;;;;;1.00;0.00;;;;;-147.47;100.00;64613.53;5064588;28;45435;-75
2023/05/05 00:03:21;;;;;;;;;0.00;0.00;;;;;-147.47;100.00;64613.53;5062748;28;46418;-74
2023/05/05 00:05:47;;;;;;;;;0.00;0.00;;;;;-147.47;100.00;64613.53;5063438;28;45528;-76
2023/05/05 00:08:13;;;;;;;;;0.33;0.00;;;;;-147.47;100.00;64613.53;5060867;28;45709;-74
2023/05/05 00:10:38;;;;;;;;;0.00;0.00;;;;;-147.47;100.00;64613.53;5062214;28;45754;-75
2023/05/05 00:13:04;;;;;;;;;1.00;1.00;;;;;-147.47;100.00;64613.53;5065713;28;46449;-74
2023/05/05 00:15:29;;;;;;;;;0.67;0.33;;;;;-147.47;100.00;64613.53;5069263;28;45820;-75
2023/05/05 00:17:55;;;;;;;;;0.00;0.00;;;;;-147.47;100.00;64613.53;5067720;28;45444;-76
2023/05/05 00:20:21;;;;;;;;;0.00;0.00;;;;;-147.47;100.00;64613.53;5060428;28;45524;-74
2023/05/05 00:22:47;;;;;;;;;0.33;0.33;;;;;-147.47;100.00;64613.53;5042250;28;45885;-78
2023/05/05 00:25:12;;;;;;;;;0.00;0.00;;;;;-147.47;100.00;64613.53;5061732;28;45348;-78
2023/05/05 00:27:38;;;;;;;;;1.00;0.00;;;;;-147.47;100.00;64613.53;5063779;28;45483;-78
2023/05/05 00:30:04;;;;;;;;;1.67;0.67;;;;;-147.47;100.00;64613.53;5063211;28;46385;-76
2023/05/05 00:32:29;;;;;;;;;0.00;0.00;;;;;-147.47;100.00;64613.53;5051343;28;45423;-78
2023/05/05 00:34:55;;;;;;;;;0.00;0.00;;;;;-147.47;100.00;64613.53;5064436;28;45612;-78
2023/05/05 00:37:20;;;;;;;;;1.00;1.00;;;;;-147.47;100.00;64613.53;5065450;28;45250;-76
2023/05/05 00:39:46;;;;;;;;;1.33;1.33;;;;;-147.47;100.00;64613.53;5065021;28;45783;-76
2023/05/05 00:42:11;;;;;;;;;0.00;0.00;;;;;-147.47;100.00;64613.53;5064825;28;45667;-76
2023/05/05 00:44:40;;;;;;;;;2.33;0.33;;;;;-147.47;100.00;64613.53;5051791;28;45513;-77
2023/05/05 00:47:11;;;;;;;;;1.00;1.00;;;;;-147.47;100.00;64613.53;5042090;28;45661;-77
2023/05/05 00:49:37;;;;;;;;;1.33;0.33;;;;;-147.47;100.00;64613.53;5074780;28;45648;-76
2023/05/05 00:52:03;;;;;;;;;0.00;0.00;;;;;-147.47;100.00;64613.53;5062984;28;45739;-78
2023/05/05 00:54:28;;;;;;;;;0.00;0.00;;;;;-147.47;100.00;64613.53;5067403;28;45414;-76
2023/05/05 00:56:54;;;;;;;;;1.00;1.00;;;;;-147.47;100.00;64613.53;5064614;28;45282;-77
2023/05/05 00:59:20;;;;;;;;;1.00;1.00;;;;;-147.47;100.00;64613.53;5060560;28;45600;-76
2023/05/05 01:01:45;;;;;;;;;1.67;1.33;;;;;-147.47;100.00;64613.53;5067345;28;45454;-75
2023/05/05 01:04:11;;;;;;;;;2.00;2.00;;;;;-147.47;100.00;64613.53;5062434;28;45629;-74
2023/05/05 01:06:42;;;;;;;;;3.33;3.00;;;;;-147.47;100.00;64613.53;5042704;28;45459;-76
2023/05/05 01:09:19;;;;;;;;;1.33;1.33;;;;;-147.47;100.00;64613.53;5058444;28;45406;-77
2023/05/05 01:11:55;;;;;;;;;1.67;1.67;;;;;-147.47;100.00;64613.53;5068418;28;46262;-75
2023/05/05 01:14:31;;;;;;;;;2.67;0.00;;;;;-147.47;100.00;64613.53;5065080;28;45853;-74
2023/05/05 01:17:03;;;;;;;;;1.33;0.00;;;;;-147.47;100.00;64613.53;5061219;28;45455;-75
2023/05/05 01:19:38;;;;;;;;;0.67;0.00;;;;;-147.47;100.00;64613.53;5060914;28;45049;-76
2023/05/05 01:22:07;;;;;;;;;0.67;0.67;;;;;-147.47;100.00;64613.53;5066806;28;45450;-75
2023/05/05 01:25:11;;;;;;;;;1.33;0.67;;;;;-147.47;100.00;64613.53;5054296;28;45516;-74
2023/05/05 01:27:58;;;;;;;;;4.00;1.67;;;;;-147.47;100.00;64613.53;5060902;28;45681;-74
2023/05/05 01:30:45;;;;;;;;;2.00;1.00;;;;;-147.47;100.00;64613.53;5051974;28;45955;-75
2023/05/05 01:33:14;;;;;;;;;1.00;1.00;;;;;-147.47;100.00;64613.53;5067697;28;46689;-74
2023/05/05 01:35:51;;;;;;;;;1.00;1.00;;;;;-147.47;100.00;64613.53;5059616;28;46516;-74
2023/05/05 01:38:21;;;;;;;;;1.00;1.00;;;;;-147.47;100.00;64613.53;5062396;28;45715;-73
2023/05/05 01:40:51;;;;;;;;;2.00;2.00;;;;;-147.47;100.00;64613.53;5052054;28;45777;-75
2023/05/05 01:43:21;;;;;;;;;3.00;1.00;;;;;-147.47;100.00;64613.53;5059714;28;46966;-76
2023/05/05 01:45:48;;;;;;;;;2.00;2.00;;;;;-147.47;100.00;64613.53;5060429;28;45606;-73
2023/05/05 01:48:18;;;;;;;;;1.00;1.00;;;;;-147.47;100.00;64613.53;5063999;28;45391;-74
2023/05/05 01:50:47;;;;;;;;;1.33;1.00;;;;;-147.47;100.00;64613.53;5077623;28;45421;-74
2023/05/05 01:53:16;;;;;;;;;1.00;0.00;;;;;-147.47;100.00;64613.53;5059819;28;45698;-75
2023/05/05 01:55:43;;;;;;;;;1.67;0.33;;;;;-147.47;100.00;64613.53;5073360;28;45292;-74
2023/05/05 01:58:10;;;;;;;;;0.33;0.33;;;;;-147.47;100.00;64613.53;5074741;28;45388;-75
2023/05/05 02:00:37;;;;;;;;;0.67;0.67;;;;;-147.47;100.00;64613.53;5067061;28;45975;-73
2023/05/05 02:03:05;;;;;;;;;0.67;0.67;;;;;-147.47;100.00;64613.53;5059405;28;45577;-75
2023/05/05 02:05:32;;;;;;;;;1.33;1.33;;;;;-147.47;100.00;64613.53;5029112;28;45306;-75
2023/05/05 02:07:59;;;;;;;;;0.00;0.00;;;;;-147.47;100.00;64613.53;5038283;28;45819;-74
2023/05/05 02:10:27;;;;;;;;;2.00;2.00;;;;;-147.47;100.00;64613.53;5037383;28;46856;-72
2023/05/05 02:12:52;;;;;;;;;1.67;0.67;;;;;-147.47;100.00;64613.53;5054970;28;46366;-71
2023/05/05 02:15:20;;;;;;;;;2.00;2.00;;;;;-147.47;100.00;64613.53;5050926;28;45960;-71
2023/05/05 02:17:50;;;;;;;;;2.00;1.00;;;;;-147.47;100.00;64613.53;5061494;28;45469;-72
2023/05/05 02:20:18;;;;;;;;;2.33;2.33;;;;;-147.47;100.00;64613.53;5056312;28;45601;-73
2023/05/05 02:22:44;;;;;;;;;2.33;1.00;;;;;-147.47;100.00;64613.53;5058192;28;46123;-70
2023/05/05 02:25:10;;;;;;;;;1.33;1.00;;;;;-147.47;100.00;64613.53;5060063;28;45427;-72
2023/05/05 02:27:40;;;;;;;;;2.00;2.00;;;;;-147.47;100.00;64613.53;5068572;28;45711;-74
2023/05/05 02:30:08;;;;;;;;;1.00;1.00;;;;;-147.47;100.00;64613.53;5048008;28;45410;-73
2023/05/05 02:33:21;;;;;;;;;3.00;2.00;;;;;-147.47;100.00;64613.53;5051054;28;46259;-82
2023/05/05 02:36:35;;;;;;;;;4.00;1.00;;;;;-147.47;100.00;64613.53;5070636;28;45547;-81
2023/05/05 02:39:25;;;;;;;;;3.00;3.00;;;;;-147.47;100.00;64613.53;5074317;28;45399;-82
2023/05/05 02:42:23;;;;;;;;;4.67;2.00;;;;;-147.47;100.00;64613.53;5071336;28;45431;-81
2023/05/05 02:55:20;;;;;;;;;4.67;1.00;;;;;-147.47;100.00;64613.53;4994761;28;45296;-76
2023/05/05 02:58:04;;;;;;;;;1.00;1.00;;;;;-147.47;100.00;64613.53;5012874;28;47046;-76
2023/05/05 03:00:54;;;;;;;;;1.67;0.00;;;;;-147.47;100.00;64613.53;5058132;28;45755;-77
2023/05/05 03:03:57;;;;;;;;;2.00;0.33;;;;;-147.47;100.00;64613.53;5065669;28;45550;-76
2023/05/05 03:06:27;;;;;;;;;1.00;1.00;;;;;-147.47;100.00;64613.53;5066774;28;44776;-75
2023/05/05 03:09:29;;;;;;;;;1.00;1.00;;;;;-147.47;100.00;64613.53;5063088;28;45426;-82
2023/05/05 03:12:02;;;;;;;;;2.00;1.00;;;;;-147.47;100.00;64613.53;5051076;28;45448;-78
2023/05/05 03:14:35;;;;;;;;;1.00;1.00;;;;;-147.47;100.00;64613.53;5066764;28;45884;-77
2023/05/05 03:17:01;;;;;;;;;2.00;0.67;;;;;-147.47;100.00;64613.53;5049621;28;46418;-76
2023/05/05 03:19:29;;;;;;;;;1.33;1.33;;;;;-147.47;100.00;64613.53;5051677;28;45211;-78
2023/05/05 03:21:55;;;;;;;;;1.00;0.00;;;;;-147.47;100.00;64613.53;5049548;28;45662;-79
2023/05/05 03:24:21;;;;;;;;;2.00;1.00;;;;;-147.47;100.00;64613.53;5072029;28;45582;-78
2023/05/05 03:26:48;;;;;;;;;2.00;1.00;;;;;-147.47;100.00;64613.53;5068809;28;45846;-78
2023/05/05 03:29:14;;;;;;;;;3.00;2.00;;;;;-147.47;100.00;64613.53;5070798;28;46355;-78
2023/05/05 03:31:41;;;;;;;;;0.00;0.00;;;;;-147.47;100.00;64613.53;5072560;28;45762;-79
2023/05/05 03:34:08;;;;;;;;;1.00;1.00;;;;;-147.47;100.00;64613.53;5068498;28;45391;-78
2023/05/05 03:36:34;;;;;;;;;3.00;1.67;;;;;-147.47;100.00;64613.53;5058891;28;45522;-78
2023/05/05 03:39:00;;;;;;;;;1.00;1.00;;;;;-147.47;100.00;64613.53;5082644;28;47261;-78
2023/05/05 03:41:26;;;;;;;;;1.00;1.00;;;;;-147.47;100.00;64613.53;5047763;28;45508;-74
2023/05/05 03:43:52;;;;;;;;;0.00;0.00;;;;;-147.47;100.00;64613.53;5044720;28;45379;-74
2023/05/05 03:46:19;;;;;;;;;0.67;0.67;;;;;-147.47;100.00;64613.53;5071789;28;45440;-76
2023/05/05 03:48:46;;;;;;;;;1.00;1.00;;;;;-147.47;100.00;64613.53;5070903;28;45309;-78
2023/05/05 03:51:11;;;;;;;;;1.00;1.00;;;;;-147.47;100.00;64613.53;5042439;28;45484;-76
2023/05/05 03:54:01;;;;;;;;;;;;;;;;;;;;;
2023/05/05 03:56:55;;;;;;;;;0.67;0.67;;;;;-147.47;100.00;64613.53;5085710;28;74694;-80
2023/05/05 03:59:41;;;;;;;;;0.33;0.33;;;;;-147.47;100.00;64613.53;5039186;28;45521;-80
2023/05/05 04:02:46;;;;;;;;;1.33;1.33;;;;;-147.47;100.00;64613.53;5059540;28;44747;-82
2023/05/05 04:09:43;;;;;;;;;;;;;;;;;;;;;
2023/05/05 04:12:10;;;;;;;;;1.67;1.00;;;;;-147.47;100.00;64613.53;4920683;28;76323;-80
2023/05/05 04:14:36;;;;;;;;;2.33;1.00;;;;;-147.47;100.00;64613.53;5046604;28;45944;-80
2023/05/05 04:17:25;;;;;;;;;1.67;1.00;;;;;-147.47;100.00;64613.53;5039533;28;44907;-79
2023/05/05 04:20:14;;;;;;;;;0.33;0.33;;;;;-147.47;100.00;64613.53;5055997;28;45743;-79
2023/05/05 04:22:46;;;;;;;;;2.33;1.00;;;;;-147.47;100.00;64613.53;5054950;28;45258;-78
2023/05/05 04:25:17;;;;;;;;;2.00;1.33;;;;;-147.47;100.00;64613.53;5052313;28;45905;-80
2023/05/05 04:31:18;;;;;;;;;2.67;2.00;;;;;-147.47;100.00;64613.53;5016979;28;45298;-80
2023/05/05 04:33:45;;;;;;;;;2.33;2.33;;;;;-147.47;100.00;64613.53;5036310;28;45582;-79
2023/05/05 04:36:23;;;;;;;;;2.00;2.00;;;;;-147.47;100.00;64613.53;5051638;28;45206;-80
2023/05/05 04:38:52;;;;;;;;;5.00;4.00;;;;;-147.47;100.00;64613.53;5051766;28;45347;-78
2023/05/05 04:41:17;;;;;;;;;3.33;2.00;;;;;-147.47;100.00;64613.53;5029815;28;45466;-77
2023/05/05 04:43:44;;;;;;;;;5.67;4.67;;;;;-147.47;100.00;64613.53;5051420;28;46349;-80
2023/05/05 04:46:13;;;;;;;;;3.00;3.00;;;;;-147.47;100.00;64613.53;5053089;28;45410;-79
2023/05/05 04:48:39;;;;;;;;;7.00;5.00;;;;;-147.47;100.00;64613.53;5051390;28;44735;-80
2023/05/05 04:51:12;;;;;;;;;4.00;2.00;;;;;-147.47;100.00;64613.53;5038539;28;45396;-83
2023/05/05 04:53:45;;;;;;;;;3.00;2.00;;;;;-147.47;100.00;64613.53;5053988;28;45562;-85
2023/05/05 04:56:24;;;;;;;;;3.00;1.67;;;;;-147.47;100.00;64613.53;5025422;28;44940;-86
2023/05/05 04:58:51;;;;;;;;;3.00;2.00;;;;;-147.47;100.00;64613.53;5061743;28;44804;-86
2023/05/05 05:01:17;;;;;;;;;2.67;1.67;;;;;-147.47;100.00;64613.53;5062830;28;44809;-84
2023/05/05 05:03:50;;;;;;;;;1.67;1.67;;;;;-147.47;100.00;64613.53;5061752;28;45419;-85
2023/05/05 05:06:16;;;;;;;;;1.67;1.67;;;;;-147.47;100.00;64613.53;5043224;28;45435;-85
2023/05/05 05:08:42;;;;;;;;;3.33;2.00;;;;;-147.47;100.00;64613.53;5066234;28;44741;-83
2023/05/05 05:11:09;;;;;;;;;3.33;1.00;;;;;-147.47;100.00;64613.53;5078952;28;45825;-84
2023/05/05 05:13:41;;;;;;;;;5.67;4.00;;;;;-147.47;100.00;64613.53;5082281;28;45122;-85
2023/05/05 05:16:10;;;;;;;;;4.33;3.00;;;;;-147.47;100.00;64613.53;5080969;28;45399;-83
2023/05/05 05:18:35;;;;;;;;;3.33;2.33;;;;;-147.47;100.00;64613.53;5086054;28;44769;-82
2023/05/05 05:21:02;;;;;;;;;3.00;2.33;;;;;-147.47;100.00;64613.53;5085194;28;44914;-81
2023/05/05 05:23:28;;;;;;;;;2.00;2.00;;;;;-147.47;100.00;64613.53;5075079;28;45387;-82
2023/05/05 05:25:53;;;;;;;;;2.33;1.00;;;;;-147.47;100.00;64613.53;5073006;28;44757;-79
2023/05/05 05:28:19;;;;;;;;;3.67;2.33;;;;;-147.47;100.00;64613.53;5054307;28;45981;-81
2023/05/05 05:30:44;;;;;;;;;4.00;3.00;;;;;-147.47;100.00;64613.53;5070697;28;45304;-82
2023/05/05 05:33:10;;;;;;;;;2.00;2.00;;;;;-147.47;100.00;64613.53;5073394;28;46337;-82
2023/05/05 05:35:35;;;;;;;;;2.00;2.00;;;;;-147.47;100.00;64613.53;5069088;28;44789;-84
2023/05/05 05:38:00;;;;;;;;;3.33;3.00;;;;;-147.47;100.00;64613.53;5080902;28;45602;-80
2023/05/05 05:40:27;;;;;;;;;4.00;4.00;;;;;-147.47;100.00;64613.53;5073845;28;45747;-82
2023/05/05 05:42:52;;;;;;;;;1.00;1.00;;;;;-147.47;100.00;64613.53;5076140;28;45615;-82
2023/05/05 05:45:18;;;;;;;;;1.33;1.33;;;;;-147.47;100.00;64613.53;5072399;28;45212;-80
2023/05/05 05:47:47;;;;;;;;;3.67;2.00;;;;;-147.47;100.00;64613.53;5073829;28;45514;-81
2023/05/05 05:50:12;;;;;;;;;4.33;3.00;;;;;-147.47;100.00;64613.53;5066325;28;45336;-79
2023/05/05 05:52:38;;;;;;;;;2.67;2.33;;;;;-147.47;100.00;64613.53;5086643;28;47212;-80
2023/05/05 05:55:04;;;;;;;;;2.00;1.00;;;;;-147.47;100.00;64613.53;5079468;28;44802;-80
2023/05/05 05:57:30;;;;;;;;;4.33;1.33;;;;;-147.47;100.00;64613.53;5075566;28;45353;-82
2023/05/05 05:59:56;;;;;;;;;2.00;1.00;;;;;-147.47;100.00;64613.53;5076508;28;45237;-83
2023/05/05 06:02:22;;;;;;;;;4.33;2.33;;;;;-147.47;100.00;64613.53;5078494;28;46469;-82
2023/05/05 06:04:48;;;;;;;;;2.00;2.00;;;;;-147.47;100.00;64613.53;5096390;28;44760;-80
2023/05/05 06:07:13;;;;;;;;;3.67;2.00;;;;;-147.47;100.00;64613.53;5093426;28;44814;-81
2023/05/05 06:09:39;;;;;;;;;1.67;1.67;;;;;-147.47;100.00;64613.53;5054375;28;45609;-79
2023/05/05 06:12:05;;;;;;;;;1.67;1.67;;;;;-147.47;100.00;64613.53;5070894;28;45456;-81
2023/05/05 06:14:30;;;;;;;;;2.67;2.67;;;;;-147.47;100.00;64613.53;5074763;28;44984;-82
2023/05/05 06:16:56;;;;;;;;;1.33;1.33;;;;;-147.47;100.00;64613.53;5073871;28;45008;-82
2023/05/05 06:19:21;;;;;;;;;3.67;2.33;;;;;-147.47;100.00;64613.53;5072949;28;44902;-84
2023/05/05 06:21:47;;;;;;;;;5.67;3.00;;;;;-147.47;100.00;64613.53;5063498;28;45368;-81
2023/05/05 06:24:12;;;;;;;;;2.00;2.00;;;;;-147.47;100.00;64613.53;5079679;28;44826;-82
2023/05/05 06:26:38;;;;;;;;;3.00;2.00;;;;;-147.47;100.00;64613.53;5055030;28;44759;-81
2023/05/05 06:29:03;;;;;;;;;2.00;2.00;;;;;-147.47;100.00;64613.53;5078494;28;45890;-81
2023/05/05 06:31:29;;;;;;;;;2.00;2.00;;;;;-147.47;100.00;64613.53;5070324;28;45904;-82
2023/05/05 06:33:55;;;;;;;;;1.67;1.00;;;;;-147.47;100.00;64613.53;5072999;28;45611;-81
2023/05/05 06:36:20;;;;;;;;;2.67;1.00;;;;;-147.47;100.00;64613.53;5060826;28;45430;-84
2023/05/05 06:38:46;;;;;;;;;2.67;2.67;;;;;-147.47;100.00;64613.53;5056211;28;46020;-83
2023/05/05 06:41:13;;;;;;;;;3.00;2.67;;;;;-147.47;100.00;64613.53;5057396;28;45565;-84
2023/05/05 06:43:38;;;;;;;;;2.00;2.00;;;;;-147.47;100.00;64613.53;5057122;28;45226;-82
2023/05/05 06:46:04;;;;;;;;;3.33;2.33;;;;;-147.47;100.00;64613.53;5070773;28;45442;-82
2023/05/05 06:48:31;;;;;;;;;0.00;0.00;;;;;-147.47;100.00;64613.53;5077920;28;44835;-83
2023/05/05 06:50:56;;;;;;;;;3.00;3.00;;;;;-147.47;100.00;64613.53;5059934;28;45935;-81
2023/05/05 06:53:22;;;;;;;;;3.67;1.67;;;;;-147.47;100.00;64613.53;5056812;28;45427;-82
2023/05/05 06:55:47;;;;;;;;;2.00;2.00;;;;;-147.47;100.00;64613.53;5048316;28;45486;-83
2023/05/05 06:58:13;;;;;;;;;1.33;1.33;;;;;-147.47;100.00;64613.53;5019700;28;45468;-83
2023/05/05 07:00:39;;;;;;;;;2.00;1.00;;;;;-147.47;100.00;64613.53;5050192;28;45393;-81
2023/05/05 07:03:05;;;;;;;;;2.33;1.00;;;;;-147.47;100.00;64613.53;5047042;28;45364;-82
2023/05/05 07:05:31;;;;;;;;;1.67;1.00;;;;;-147.47;100.00;64613.53;5046638;28;45882;-82
2023/05/05 07:07:57;;;;;;;;;3.00;1.00;;;;;-147.47;100.00;64613.53;5044585;28;46130;-81
2023/05/05 07:10:24;;;;;;;;;4.00;2.33;;;;;-147.47;100.00;64613.53;5059262;28;45434;-84
2023/05/05 07:12:53;;;;;;;;;4.00;1.00;;;;;-147.47;100.00;64613.53;5046302;28;45474;-82
2023/05/05 07:15:19;;;;;;;;;2.00;1.00;;;;;-147.47;100.00;64613.53;5050046;28;45297;-81
2023/05/05 07:17:45;;;;;;;;;4.67;1.00;;;;;-147.47;100.00;64613.53;5049444;28;44893;-81
2023/05/05 07:20:11;;;;;;;;;1.33;1.00;;;;;-147.47;100.00;64613.53;5050296;28;46275;-80
2023/05/05 07:22:37;;;;;;;;;1.00;1.00;;;;;-147.47;100.00;64613.53;5059437;28;45548;-84
2023/05/05 07:25:03;;;;;;;;;2.33;2.33;;;;;-147.47;100.00;64613.53;5048664;28;45086;-85
2023/05/05 07:27:30;;;;;;;;;2.00;2.00;;;;;-147.47;100.00;64613.53;5039083;28;45402;-84
2023/05/05 07:29:55;;;;;;;;;2.00;2.00;;;;;-147.47;100.00;64613.53;5035793;28;47051;-81
2023/05/05 07:32:21;;;;;;;;;1.67;1.00;;;;;-147.47;100.00;64613.53;5047949;28;45790;-83
2023/05/05 07:34:46;;;;;;;;;2.00;0.67;;;;;-147.47;100.00;64613.53;5025349;28;45252;-82
2023/05/05 07:37:12;;;;;;;;;1.00;1.00;;;;;-147.47;100.00;64613.53;5029906;28;46021;-83
2023/05/05 07:39:38;;;;;;;;;1.33;1.33;;;;;-147.47;100.00;64613.53;5057517;28;46023;-84
2023/05/05 07:42:03;;;;;;;;;1.00;1.00;;;;;-147.47;100.00;64613.53;5051955;28;45808;-83
2023/05/05 07:44:29;;;;;;;;;1.00;1.00;;;;;-147.47;100.00;64613.53;5062210;28;45058;-81
2023/05/05 07:46:54;;;;;;;;;3.00;1.00;;;;;-147.47;100.00;64613.53;5050842;28;45740;-82
2023/05/05 07:49:20;;;;;;;;;1.00;0.67;;;;;-147.47;100.00;64613.53;5050326;28;45330;-82
2023/05/05 07:51:48;;;;;;;;;2.00;1.00;;;;;-147.47;100.00;64613.53;5042863;28;44731;-83
2023/05/05 07:54:14;;;;;;;;;0.00;0.00;;;;;-147.47;100.00;64613.53;5054814;28;45994;-81
2023/05/05 07:56:40;;;;;;;;;2.00;1.00;;;;;-147.47;100.00;64613.53;5057293;28;45593;-83
2023/05/05 07:59:34;;;;;;;;;2.67;2.67;;;;;-147.47;100.00;64613.53;5036681;28;46331;-86
2023/05/05 08:02:00;;;;;;;;;3.33;0.33;;;;;-147.47;100.00;64613.53;5055213;28;44894;-83
2023/05/05 08:04:25;;;;;;;;;2.67;1.00;;;;;-147.47;100.00;64613.53;5056281;28;45550;-83
2023/05/05 08:06:51;;;;;;;;;1.00;1.00;;;;;-147.47;100.00;64613.53;5049455;28;45848;-83
2023/05/05 08:09:17;;;;;;;;;1.67;0.67;;;;;-147.47;100.00;64613.53;5058284;28;47209;-82
2023/05/05 08:11:42;;;;;;;;;3.33;3.00;;;;;-147.47;100.00;64613.53;5037389;28;46004;-84
2023/05/05 08:14:08;;;;;;;;;4.00;4.00;;;;;-147.47;100.00;64613.53;5054679;28;45203;-86
2023/05/05 08:16:34;;;;;;;;;2.00;2.00;;;;;-147.47;100.00;64613.53;5042014;28;44816;-82
2023/05/05 08:19:00;;;;;;;;;5.00;3.33;;;;;-147.47;100.00;64613.53;5053531;28;45131;-82
2023/05/05 08:21:26;;;;;;;;;1.00;1.00;;;;;-147.47;100.00;64613.53;5054531;28;45420;-83
2023/05/05 08:23:51;;;;;;;;;2.75;1.50;;;;;-147.47;100.00;64613.53;5044182;28;45566;-82
2023/05/05 08:26:17;;;;;;;;;1.00;1.00;;;;;-147.47;100.00;64613.53;5049860;28;45550;-81
2023/05/05 08:28:42;;;;;;;;;1.75;1.75;;;;;-147.47;100.00;64613.53;5050063;28;45459;-80
2023/05/05 08:31:08;;;;;;;;;1.00;1.00;;;;;-147.47;100.00;64613.53;5051324;28;45842;-83
2023/05/05 08:33:33;;;;;;;;;2.75;1.00;;;;;-147.47;100.00;64613.53;5035240;28;45523;-80
2023/05/05 08:35:59;;;;;;;;;1.00;1.00;;;;;-147.47;100.00;64613.53;5051658;28;45525;-82
2023/05/05 08:38:24;;;;;;;;;1.00;1.00;;;;;-147.47;100.00;64613.53;5044442;28;47193;-83
2023/05/05 08:40:58;;;;;;;;;0.75;0.00;;;;;-147.47;100.00;64613.53;5054129;28;45449;-87
2023/05/05 08:43:24;;;;;;;;;2.25;1.25;;;;;-147.47;100.00;64613.53;5050923;28;45813;-82
2023/05/05 08:45:55;;;;;;;;;2.75;1.00;;;;;-147.47;100.00;64613.53;5043887;28;45613;-85
2023/05/05 08:48:24;;;;;;;;;0.25;0.25;;;;;-147.47;100.00;64613.53;5033213;28;46180;-82
2023/05/05 08:50:56;;;;;;;;;0.00;0.00;;;;;-147.47;100.00;64613.53;5050470;28;44910;-80
2023/05/05 08:53:41;;;;;;;;;1.00;0.00;;;;;-147.47;100.00;64613.53;5053011;28;45637;-82
2023/05/05 08:56:07;;;;;;;;;0.00;0.00;;;;;-147.47;100.00;64613.53;5064839;28;45359;-84
2023/05/05 08:58:35;;;;;;;;;2.00;1.00;;;;;-147.47;100.00;64613.53;5055246;28;45475;-81
2023/05/05 09:01:01;;;;;;;;;0.00;0.00;;;;;-147.47;100.00;64613.53;5042809;28;45506;-81
2023/05/05 09:03:28;;;;;;;;;1.00;1.00;;;;;-147.47;100.00;64613.53;5057725;28;45458;-83
2023/05/05 09:05:55;;;;;;;;;0.00;0.00;;;;;-147.47;100.00;64613.53;5051787;28;45571;-83
2023/05/05 09:08:22;;;;;;;;;0.75;0.75;;;;;-147.47;100.00;64613.53;5052517;28;45407;-81
2023/05/05 09:10:50;;;;;;;;;1.00;1.00;;;;;-147.47;100.00;64613.53;5052094;28;45898;-83
2023/05/05 09:13:17;;;;;;;;;1.25;0.00;;;;;-147.47;100.00;64613.53;5050998;28;46330;-84
2023/05/05 09:15:43;;;;;;;;;2.00;0.75;;;;;-147.47;100.00;64613.53;5060902;28;46213;-85
2023/05/05 09:18:10;;;;;;;;;1.00;0.00;;;;;-147.47;100.00;64613.53;5050450;28;47148;-85
2023/05/05 09:20:37;;;;;;;;;0.50;0.25;;;;;-147.47;100.00;64613.53;5053641;28;44721;-82
2023/05/05 09:23:08;;;;;;;;;0.25;0.25;;;;;-147.47;100.00;64613.53;5051555;28;45448;-83
2023/05/05 09:25:34;;;;;;;;;0.00;0.00;;;;;-147.47;100.00;64613.53;5037198;28;44884;-84
2023/05/05 09:28:07;;;;;;;;;0.00;0.00;;;;;-147.47;100.00;64613.53;5054724;28;46283;-84
2023/05/05 09:30:35;;;;;;;;;0.60;0.00;;;;;-147.47;100.00;64613.53;5054139;28;44793;-81
2023/05/05 09:33:01;;;;;;;;;1.75;1.00;;;;;-147.47;100.00;64613.53;5054623;28;45308;-82
2023/05/05 09:35:27;;;;;;;;;0.00;0.00;;;;;-147.47;100.00;64613.53;5056312;28;45296;-85
2023/05/05 09:37:52;;;;;;;;;0.00;0.00;;;;;-147.47;100.00;64613.53;5062508;28;45391;-85
2023/05/05 09:40:19;;;;;;;;;0.00;0.00;;;;;-147.47;100.00;64613.53;5042520;28;44757;-82
2023/05/05 09:42:46;;;;;;;;;0.25;0.25;;;;;-147.47;100.00;64613.53;5053979;28;45115;-84
2023/05/05 09:45:17;;;;;;;;;0.00;0.00;;;;;-147.47;100.00;64613.53;5040184;28;45316;-85
2023/05/05 09:47:47;;;;;;;;;0.20;0.20;;;;;-147.47;100.00;64613.53;5056874;28;45029;-84
2023/05/05 09:50:14;;;;;;;;;0.00;0.00;;;;;-147.47;100.00;64613.53;5054449;28;45317;-84
2023/05/05 09:52:57;;;;;;;;;2.25;2.00;;;;;-147.47;100.00;64613.53;5055221;28;44781;-86
2023/05/05 09:55:23;;;;;;;;;0.00;0.00;;;;;-147.47;100.00;64613.53;5053230;28;45702;-86
2023/05/05 09:57:50;;;;;;;;;1.25;1.25;;;;;-147.47;100.00;64613.53;5062892;28;45457;-86
2023/05/05 10:00:16;;;;;;;;;2.75;1.75;;;;;-147.47;100.00;64613.53;5050949;28;45630;-84
2023/05/05 10:02:41;;;;;;;;;0.00;0.00;;;;;-147.47;100.00;64613.53;5034491;28;45341;-81
2023/05/05 10:05:15;;;;;;;;;3.50;2.00;;;;;-147.47;100.00;64613.53;5053901;28;45518;-83
2023/05/05 10:07:46;;;;;;;;;0.00;0.00;;;;;-147.47;100.00;64613.53;5033624;28;46879;-85
2023/05/05 10:10:14;;;;;;;;;1.00;1.00;;;;;-147.47;100.00;64613.53;5040672;28;45518;-85
2023/05/05 10:12:40;;;;;;;;;1.00;1.00;;;;;-147.47;100.00;64613.53;5057927;28;45177;-83
2023/05/05 10:15:09;;;;;;;;;0.00;0.00;;;;;-147.47;100.00;64613.53;5055409;28;44855;-85
2023/05/05 10:17:45;;;;;;;;;1.00;0.00;;;;;-147.47;100.00;64613.53;5038151;28;45278;-87
2023/05/05 10:20:12;;;;;;;;;0.00;0.00;;;;;-147.47;100.00;64613.53;5035366;28;45511;-84
2023/05/05 10:22:39;;;;;;;;;0.00;0.00;;;;;-147.47;100.00;64613.53;5042923;28;45574;-80
2023/05/05 10:25:14;;;;;;;;;1.75;0.25;;;;;-147.47;100.00;64613.53;5056409;28;45337;-82
2023/05/05 10:27:51;;;;;;;;;1.00;1.00;;;;;-147.47;100.00;64613.53;5048501;28;45484;-85
2023/05/05 10:30:23;;;;;;;;;0.00;0.00;;;;;-147.47;100.00;64613.53;5048166;28;44875;-84
2023/05/05 10:32:51;;;;;;;;;0.75;0.75;;;;;-147.47;100.00;64613.53;5028207;28;45366;-83
2023/05/05 10:35:23;;;;;;;;;1.00;1.00;;;;;-147.47;100.00;64613.53;5054713;28;45582;-84
2023/05/05 10:37:49;;;;;;;;;1.00;1.00;;;;;-147.47;100.00;64613.53;5050468;28;45309;-85
2023/05/05 10:40:16;;;;;;;;;1.20;0.00;;;;;-147.47;100.00;64613.53;5051170;28;44779;-82
2023/05/05 10:42:49;;;;;;;;;2.00;1.00;;;;;-147.47;100.00;64613.53;5039722;28;45352;-84
2023/05/05 10:45:19;;;;;;;;;2.00;0.50;;;;;-147.47;100.00;64613.53;5039535;28;46052;-85
2023/05/05 10:47:50;;;;;;;;;0.00;0.00;;;;;-147.47;100.00;64613.53;5050639;28;45397;-83
2023/05/05 10:50:30;;;;;;;;;0.20;0.00;;;;;-147.47;100.00;64613.53;5049012;28;45411;-83
2023/05/05 10:53:17;;;;;;;;;0.50;0.50;;;;;-147.47;100.00;64613.53;5044089;28;44750;-85
2023/05/05 10:55:55;;;;;;;;;0.00;0.00;;;;;-147.47;100.00;64613.53;5044617;28;46038;-84
2023/05/05 10:58:40;;;;;;;;;0.00;0.00;;;;;-147.47;100.00;64613.53;5053434;28;45470;-83
2023/05/05 11:01:06;;;;;;;;;2.00;0.00;;;;;-147.47;100.00;64613.53;5050959;28;45531;-82
2023/05/05 11:03:33;;;;;;;;;3.00;1.00;;;;;-147.47;100.00;64613.53;5067051;28;45688;-82
2023/05/05 11:06:06;;;;;;;;;0.00;0.00;;;;;-147.47;100.00;64613.53;5071861;28;45585;-84
2023/05/05 11:08:37;;;;;;;;;0.00;0.00;;;;;-147.47;100.00;64613.53;5069651;28;46433;-83
2023/05/05 11:11:03;;;;;;;;;1.00;0.00;;;;;-147.47;100.00;64613.53;5061844;28;45515;-83
2023/05/05 11:13:30;;;;;;;;;0.00;0.00;;;;;-147.47;100.00;64613.53;5053901;28;45354;-81
2023/05/05 11:16:00;;;;;;;;;0.00;0.00;;;;;-147.47;100.00;64613.53;5063533;28;46380;-82
2023/05/05 11:19:14;;;;;;;;;0.75;0.75;;;;;-147.47;100.00;64613.53;5058852;28;46684;-82
2023/05/05 11:22:00;;;;;;;;;1.25;0.00;;;;;-147.47;100.00;64613.53;4999465;28;45999;-82
2023/05/05 11:24:29;;;;;;;;;0.00;0.00;;;;;-147.47;100.00;64613.53;5056964;28;45495;-83
2023/05/05 11:26:55;;;;;;;;;0.50;0.00;;;;;-147.47;100.00;64613.53;5077989;28;46172;-84
2023/05/05 11:29:21;;;;;;;;;2.00;1.00;;;;;-147.47;100.00;64613.53;5074858;28;45165;-83
2023/05/05 11:32:10;;;;;;;;;0.00;0.00;;;;;-147.47;100.00;64613.53;5069977;28;45505;-80
2023/05/05 11:34:47;;;;;;;;;1.50;1.50;;;;;-147.47;100.00;64613.53;5049793;28;45443;-81
2023/05/05 11:37:21;;;;;;;;;1.75;0.00;;;;;-147.47;100.00;64613.53;5074966;28;46634;-81
2023/05/05 11:40:12;;;;;;;;;0.00;0.00;;;;;-147.47;100.00;64613.53;5063804;28;46110;-80
2023/05/05 11:42:38;;;;;;;;;0.00;0.00;;;;;-147.47;100.00;64613.53;5055933;28;45490;-81